createdAt,value
2022-08-29T00:00:17.649Z,9.32
2022-08-29T00:02:47.789Z,8.70
2022-08-29T00:05:18.364Z,8.57
2022-08-29T00:07:46.861Z,8.57
2022-08-29T00:10:15.972Z,8.93
2022-08-29T00:12:45.184Z,9.57
2022-08-29T00:15:15.353Z,9.00
2022-08-29T00:17:44.267Z,8.82
2022-08-29T00:20:17.235Z,9.90
2022-08-29T00:22:45.692Z,7.68
2022-08-29T00:25:15.200Z,8.90
2022-08-29T00:27:44.575Z,7.68
2022-08-29T00:30:19.835Z,8.50
2022-08-29T00:32:47.989Z,8.25
2022-08-29T00:35:22.999Z,7.72
2022-08-29T00:37:52.270Z,8.27
2022-08-29T00:40:24.287Z,8.98
2022-08-29T00:42:52.685Z,8.65
2022-08-29T00:45:20.887Z,7.47
2022-08-29T00:47:53.856Z,8.27
2022-08-29T00:50:28.706Z,8.05
2022-08-29T00:52:58.447Z,8.23
2022-08-29T00:55:30.231Z,9.13
2022-08-29T00:58:01.222Z,7.75
2022-08-29T01:00:29.643Z,8.55
2022-08-29T01:02:58.198Z,7.90
2022-08-29T01:05:28.152Z,8.35
2022-08-29T01:07:56.490Z,9.30
2022-08-29T01:10:42.813Z,8.30
2022-08-29T01:13:12.927Z,8.93
2022-08-29T01:15:44.103Z,9.48
2022-08-29T01:18:16.729Z,8.93
2022-08-29T01:20:58.448Z,8.98
2022-08-29T01:23:34.333Z,9.02
2022-08-29T01:26:06.827Z,8.57
2022-08-29T01:28:39.626Z,9.07
2022-08-29T01:31:10.660Z,9.45
2022-08-29T01:33:43.396Z,9.43
2022-08-29T01:36:15.628Z,9.13
2022-08-29T01:38:44.271Z,9.23
2022-08-29T01:41:14.737Z,9.27
2022-08-29T01:43:48.832Z,8.88
2022-08-29T01:46:19.481Z,7.68
2022-08-29T01:48:48.544Z,9.43
2022-08-29T01:51:18.008Z,9.27
2022-08-29T01:53:46.318Z,8.82
2022-08-29T01:56:19.062Z,9.00
2022-08-29T01:58:48.952Z,8.88
2022-08-29T02:01:20.456Z,8.95
2022-08-29T02:03:50.399Z,8.98
2022-08-29T02:06:18.839Z,9.50
2022-08-29T02:08:47.071Z,9.38
2022-08-29T02:11:17.969Z,9.75
2022-08-29T02:13:48.564Z,10.50
2022-08-29T02:16:18.333Z,9.80
2022-08-29T02:18:47.136Z,9.80
2022-08-29T02:21:18.663Z,10.02
2022-08-29T02:23:50.076Z,10.23
2022-08-29T02:26:21.977Z,10.20
2022-08-29T02:28:51.777Z,10.40
2022-08-29T02:31:21.624Z,9.43
2022-08-29T02:33:49.823Z,9.90
2022-08-29T02:36:17.996Z,10.38
2022-08-29T02:38:48.404Z,10.35
2022-08-29T02:41:16.813Z,10.35
2022-08-29T02:43:46.266Z,10.52
2022-08-29T02:46:17.352Z,10.48
2022-08-29T02:48:47.655Z,11.13
2022-08-29T02:51:31.605Z,11.00
2022-08-29T02:54:00.791Z,11.02
2022-08-29T02:56:29.291Z,10.65
2022-08-29T02:58:59.414Z,10.82
2022-08-29T03:01:28.663Z,10.50
2022-08-29T03:03:56.776Z,10.52
2022-08-29T03:06:25.445Z,10.30
2022-08-29T03:08:54.258Z,10.70
2022-08-29T03:11:24.161Z,10.43
2022-08-29T03:13:52.616Z,10.15
2022-08-29T03:16:27.888Z,10.55
2022-08-29T03:18:56.571Z,11.43
2022-08-29T03:21:27.307Z,11.18
2022-08-29T03:23:57.023Z,9.95
2022-08-29T03:26:25.932Z,11.63
2022-08-29T03:28:54.297Z,11.90
2022-08-29T03:31:22.876Z,11.27
2022-08-29T03:33:52.523Z,11.63
2022-08-29T03:36:20.913Z,10.50
2022-08-29T03:38:49.489Z,11.90
2022-08-29T03:41:22.391Z,10.82
2022-08-29T03:43:50.593Z,11.85
2022-08-29T03:46:18.962Z,12.45
2022-08-29T03:48:47.127Z,11.55
2022-08-29T03:51:16.774Z,11.63
2022-08-29T03:53:45.340Z,10.80
2022-08-29T03:56:18.345Z,11.90
2022-08-29T03:58:52.554Z,11.45
2022-08-29T04:01:22.829Z,11.27
2022-08-29T04:03:51.629Z,11.93
2022-08-29T04:06:22.506Z,13.95
2022-08-29T04:08:51.736Z,23.13
2022-08-29T04:11:22.587Z,32.45
2022-08-29T04:13:51.446Z,27.02
2022-08-29T04:16:23.108Z,20.00
2022-08-29T04:18:51.506Z,17.63
2022-08-29T04:21:21.123Z,19.15
2022-08-29T04:23:53.442Z,15.82
2022-08-29T04:26:37.743Z,14.45
2022-08-29T04:29:06.729Z,13.27
2022-08-29T04:31:36.704Z,12.73
2022-08-29T04:34:06.206Z,13.13
2022-08-29T04:36:37.142Z,12.27
2022-08-29T04:39:06.614Z,11.73
2022-08-29T04:41:35.422Z,13.25
2022-08-29T04:44:03.756Z,11.90
2022-08-29T04:46:32.906Z,12.02
2022-08-29T04:49:04.304Z,12.27
2022-08-29T04:51:34.481Z,11.50
2022-08-29T04:54:05.314Z,12.32
2022-08-29T04:56:34.847Z,12.38
2022-08-29T04:59:03.054Z,11.95
2022-08-29T05:01:31.869Z,12.07
2022-08-29T05:04:00.103Z,11.55
2022-08-29T05:06:28.725Z,12.82
2022-08-29T05:08:59.337Z,12.60
2022-08-29T05:11:30.884Z,12.75
2022-08-29T05:14:00.680Z,13.73
2022-08-29T05:16:30.492Z,16.92
2022-08-29T05:19:00.061Z,14.18
2022-08-29T05:21:34.149Z,13.60
2022-08-29T05:24:06.083Z,12.85
2022-08-29T05:26:39.090Z,13.60
2022-08-29T05:29:09.653Z,13.60
2022-08-29T05:31:38.273Z,13.93
2022-08-29T05:34:29.928Z,12.63
2022-08-29T05:36:55.188Z,12.65
2022-08-29T05:39:23.530Z,12.27
2022-08-29T05:41:56.479Z,10.80
2022-08-29T05:44:24.913Z,11.77
2022-08-29T05:46:53.040Z,10.35
2022-08-29T05:49:21.524Z,10.55
2022-08-29T05:51:53.347Z,11.13
2022-08-29T05:54:21.903Z,10.60
2022-08-29T05:56:51.293Z,10.35
2022-08-29T05:59:21.302Z,10.23
2022-08-29T06:01:49.470Z,9.00
2022-08-29T06:04:17.573Z,9.52
2022-08-29T06:06:45.940Z,9.30
2022-08-29T06:09:15.086Z,8.85
2022-08-29T06:11:47.156Z,8.43
2022-08-29T06:14:15.917Z,8.02
2022-08-29T06:16:45.606Z,8.55
2022-08-29T06:19:13.805Z,9.02
2022-08-29T06:21:42.076Z,8.50
2022-08-29T06:24:10.493Z,9.43
2022-08-29T06:26:38.725Z,7.82
2022-08-29T06:29:09.790Z,7.97
2022-08-29T06:31:38.753Z,8.70
2022-08-29T06:34:10.178Z,7.90
2022-08-29T06:36:38.804Z,8.00
2022-08-29T06:39:09.954Z,7.90
2022-08-29T06:41:40.766Z,7.50
2022-08-29T06:44:10.547Z,7.35
2022-08-29T06:46:41.770Z,7.72
2022-08-29T06:49:14.667Z,7.90
2022-08-29T06:51:46.862Z,6.97
2022-08-29T06:54:15.465Z,8.20
2022-08-29T06:56:44.228Z,8.10
2022-08-29T06:59:13.192Z,7.45
2022-08-29T07:01:42.935Z,7.32
2022-08-29T07:04:14.598Z,7.65
2022-08-29T07:06:44.173Z,7.57
2022-08-29T07:09:13.166Z,7.50
2022-08-29T07:11:43.342Z,7.90
2022-08-29T07:14:13.535Z,7.78
2022-08-29T07:16:45.116Z,7.00
2022-08-29T07:19:14.923Z,6.53
2022-08-29T07:21:44.074Z,7.40
2022-08-29T07:24:12.400Z,7.40
2022-08-29T07:26:44.292Z,7.07
2022-08-29T07:29:15.997Z,7.45
2022-08-29T07:31:44.293Z,7.28
2022-08-29T07:34:14.673Z,7.57
2022-08-29T07:36:43.063Z,7.00
2022-08-29T07:39:13.360Z,8.10
2022-08-29T07:41:43.673Z,7.35
2022-08-29T07:44:15.910Z,6.38
2022-08-29T07:46:47.541Z,7.00
2022-08-29T07:49:17.329Z,6.88
2022-08-29T07:51:45.540Z,6.28
2022-08-29T07:54:16.904Z,6.57
2022-08-29T07:56:46.043Z,7.22
2022-08-29T07:59:14.541Z,7.10
2022-08-29T08:01:42.715Z,7.32
2022-08-29T08:04:11.661Z,6.97
2022-08-29T08:06:43.611Z,6.85
2022-08-29T08:09:14.149Z,6.32
2022-08-29T08:11:43.788Z,6.82
2022-08-29T08:14:12.695Z,6.82
2022-08-29T08:16:44.319Z,12.77
2022-08-29T08:19:14.300Z,8.05
2022-08-29T08:21:49.593Z,7.40
2022-08-29T08:24:19.752Z,9.38
2022-08-29T08:26:49.670Z,8.40
2022-08-29T08:29:18.519Z,12.52
2022-08-29T08:31:50.056Z,8.93
2022-08-29T08:34:19.024Z,6.40
2022-08-29T08:36:48.697Z,8.85
2022-08-29T08:39:17.163Z,7.80
2022-08-29T08:41:58.544Z,7.32
2022-08-29T08:45:05.722Z,7.20
2022-08-29T08:47:40.174Z,6.53
2022-08-29T08:50:17.650Z,7.57
2022-08-29T08:52:55.163Z,6.70
2022-08-29T08:55:30.747Z,7.13
2022-08-29T08:58:08.004Z,7.10
2022-08-29T09:00:43.655Z,6.72
2022-08-29T09:03:26.566Z,7.13
2022-08-29T09:06:10.841Z,6.75
2022-08-29T09:08:52.363Z,7.18
2022-08-29T09:11:28.225Z,7.28
2022-08-29T09:14:10.917Z,7.70
2022-08-29T09:16:45.091Z,6.68
2022-08-29T09:19:17.269Z,7.05
2022-08-29T09:21:49.815Z,7.40
2022-08-29T09:24:27.111Z,7.05
2022-08-29T09:26:56.410Z,7.38
2022-08-29T09:29:28.622Z,7.18
2022-08-29T09:32:10.368Z,7.35
2022-08-29T09:35:06.911Z,7.13
2022-08-29T09:37:36.288Z,6.20
2022-08-29T09:40:10.828Z,7.43
2022-08-29T09:42:42.859Z,7.45
2022-08-29T09:45:30.711Z,7.70
2022-08-29T09:48:12.291Z,6.72
2022-08-29T09:50:40.462Z,7.38
2022-08-29T09:53:11.673Z,7.18
2022-08-29T09:55:54.944Z,8.13
2022-08-29T09:58:34.262Z,7.32
2022-08-29T10:01:09.862Z,7.50
2022-08-29T10:03:44.462Z,9.27
2022-08-29T10:06:16.569Z,7.10
2022-08-29T10:08:57.758Z,7.10
2022-08-29T10:11:33.099Z,6.63
2022-08-29T10:14:05.572Z,6.45
2022-08-29T10:16:50.492Z,7.40
2022-08-29T10:19:22.550Z,8.05
2022-08-29T10:22:00.716Z,7.45
2022-08-29T10:24:55.222Z,6.85
2022-08-29T10:27:33.826Z,6.45
2022-08-29T10:30:10.225Z,6.85
2022-08-29T10:33:01.255Z,6.63
2022-08-29T10:35:35.147Z,6.32
2022-08-29T10:38:13.669Z,6.70
2022-08-29T10:40:47.548Z,7.63
2022-08-29T10:43:43.383Z,6.82
2022-08-29T10:46:24.842Z,6.40
2022-08-29T10:49:03.504Z,6.20
2022-08-29T10:51:38.139Z,6.88
2022-08-29T10:54:18.392Z,6.50
2022-08-29T10:56:49.641Z,7.35
2022-08-29T10:59:30.302Z,7.00
2022-08-29T11:02:03.353Z,7.00
2022-08-29T11:04:38.350Z,6.60
2022-08-29T11:07:12.973Z,7.15
2022-08-29T11:09:45.217Z,7.03
2022-08-29T11:12:18.979Z,6.57
2022-08-29T11:14:54.428Z,6.65
2022-08-29T11:17:26.135Z,7.05
2022-08-29T11:20:09.685Z,6.47
2022-08-29T11:22:43.180Z,7.82
2022-08-29T11:25:14.535Z,6.47
2022-08-29T11:27:54.747Z,7.20
2022-08-29T11:30:30.687Z,6.60
2022-08-29T11:33:08.511Z,6.10
2022-08-29T11:35:47.185Z,5.72
2022-08-29T11:38:59.289Z,5.75
2022-08-29T11:41:30.992Z,5.05
2022-08-29T11:44:11.501Z,5.57
2022-08-29T11:46:49.011Z,5.72
2022-08-29T11:49:37.344Z,5.88
2022-08-29T11:52:27.349Z,6.13
2022-08-29T11:55:22.690Z,5.82
2022-08-29T11:58:01.730Z,5.55
2022-08-29T12:00:48.596Z,4.90
2022-08-29T12:03:53.819Z,6.18
2022-08-29T12:06:51.706Z,6.45
2022-08-29T12:09:47.748Z,6.70
2022-08-29T12:12:38.307Z,6.63
2022-08-29T12:15:48.959Z,6.53
2022-08-29T12:18:36.931Z,6.78
2022-08-29T12:21:46.126Z,7.97
2022-08-29T12:24:55.168Z,6.93
2022-08-29T12:27:59.718Z,8.05
2022-08-29T12:30:28.515Z,8.85
2022-08-29T12:33:09.132Z,7.97
2022-08-29T12:36:08.259Z,7.30
2022-08-29T12:38:44.790Z,7.50
2022-08-29T12:41:34.025Z,7.80
2022-08-29T12:44:05.961Z,7.70
2022-08-29T12:46:36.809Z,8.35
2022-08-29T12:49:16.059Z,8.10
2022-08-29T12:51:44.811Z,7.13
2022-08-29T12:54:13.954Z,7.60
2022-08-29T12:56:49.996Z,8.13
2022-08-29T12:59:20.364Z,8.27
2022-08-29T13:01:52.272Z,8.43
2022-08-29T13:04:32.001Z,7.93
2022-08-29T13:07:03.196Z,8.05
2022-08-29T13:09:34.161Z,8.43
2022-08-29T13:12:13.529Z,9.07
2022-08-29T13:15:04.071Z,7.88
2022-08-29T13:17:35.525Z,8.00
2022-08-29T13:20:42.831Z,7.07
2022-08-29T13:23:17.158Z,8.27
2022-08-29T13:25:49.760Z,6.85
2022-08-29T13:28:25.324Z,7.20
2022-08-29T13:31:30.499Z,7.15
2022-08-29T13:34:12.948Z,7.40
2022-08-29T13:36:46.226Z,7.53
2022-08-29T13:39:29.183Z,7.32
2022-08-29T13:42:21.444Z,8.30
2022-08-29T13:45:13.110Z,7.45
2022-08-29T13:47:49.697Z,7.63
2022-08-29T13:50:17.865Z,7.15
2022-08-29T13:52:46.027Z,7.43
2022-08-29T13:55:14.298Z,7.18
2022-08-29T13:57:42.876Z,7.90
2022-08-29T14:00:13.940Z,7.32
2022-08-29T14:02:45.123Z,8.00
2022-08-29T14:05:15.006Z,7.65
2022-08-29T14:07:45.670Z,7.85
2022-08-29T14:10:17.608Z,7.00
2022-08-29T14:12:47.572Z,7.38
2022-08-29T14:15:19.032Z,7.20
2022-08-29T14:17:49.064Z,6.30
2022-08-29T14:20:20.010Z,6.40
2022-08-29T14:22:48.889Z,6.18
2022-08-29T14:25:20.436Z,6.28
2022-08-29T14:27:49.633Z,5.78
2022-08-29T14:30:22.059Z,6.10
2022-08-29T14:32:50.476Z,6.38
2022-08-29T14:35:26.766Z,6.20
2022-08-29T14:38:01.474Z,6.35
2022-08-29T14:40:30.731Z,5.70
2022-08-29T14:42:59.414Z,6.40
2022-08-29T14:45:30.261Z,6.47
2022-08-29T14:47:59.042Z,6.18
2022-08-29T14:50:29.758Z,5.80
2022-08-29T14:52:57.892Z,6.22
2022-08-29T14:55:26.415Z,6.15
2022-08-29T14:57:54.789Z,6.10
2022-08-29T15:00:25.865Z,5.70
2022-08-29T15:02:56.985Z,6.03
2022-08-29T15:05:26.083Z,6.13
2022-08-29T15:07:54.619Z,6.75
2022-08-29T15:10:25.177Z,5.90
2022-08-29T15:12:54.876Z,5.65
2022-08-29T15:15:29.535Z,5.20
2022-08-29T15:18:00.740Z,5.50
2022-08-29T15:20:38.735Z,5.85
2022-08-29T15:23:08.203Z,5.22
2022-08-29T15:25:36.516Z,5.45
2022-08-29T15:28:06.904Z,5.38
2022-08-29T15:30:35.563Z,5.72
2022-08-29T15:33:05.415Z,5.70
2022-08-29T15:35:34.347Z,5.85
2022-08-29T15:38:02.675Z,5.75
2022-08-29T15:40:31.362Z,5.78
2022-08-29T15:42:59.703Z,6.32
2022-08-29T15:45:27.906Z,5.60
2022-08-29T15:47:59.009Z,6.18
2022-08-29T15:50:47.109Z,5.82
2022-08-29T15:53:15.676Z,5.63
2022-08-29T15:55:44.588Z,5.40
2022-08-29T15:58:12.886Z,5.05
2022-08-29T16:00:41.214Z,5.97
2022-08-29T16:03:09.755Z,6.60
2022-08-29T16:05:41.106Z,6.03
2022-08-29T16:08:10.773Z,5.35
2022-08-29T16:10:45.387Z,6.47
2022-08-29T16:13:14.512Z,7.57
2022-08-29T16:15:42.953Z,5.80
2022-08-29T16:18:11.529Z,5.80
2022-08-29T16:20:41.692Z,5.75
2022-08-29T16:23:10.118Z,5.53
2022-08-29T16:25:39.264Z,6.03
2022-08-29T16:28:07.732Z,6.50
2022-08-29T16:30:44.232Z,6.43
2022-08-29T16:33:14.159Z,5.85
2022-08-29T16:35:43.876Z,6.18
2022-08-29T16:38:12.530Z,5.97
2022-08-29T16:40:41.024Z,6.57
2022-08-29T16:43:09.752Z,6.38
2022-08-29T16:45:38.275Z,6.20
2022-08-29T16:48:17.667Z,6.20
2022-08-29T16:50:48.026Z,6.03
2022-08-29T16:53:16.314Z,6.53
2022-08-29T16:55:44.477Z,5.95
2022-08-29T16:58:30.155Z,6.40
2022-08-29T17:00:58.890Z,5.70
2022-08-29T17:03:27.293Z,6.13
2022-08-29T17:05:56.933Z,6.22
2022-08-29T17:08:23.993Z,6.05
2022-08-29T17:10:50.977Z,5.70
2022-08-29T17:13:18.150Z,5.82
2022-08-29T17:15:45.129Z,5.82
2022-08-29T17:18:13.345Z,5.75
2022-08-29T17:20:44.014Z,5.88
2022-08-29T17:23:16.402Z,6.28
2022-08-29T17:25:44.846Z,6.68
2022-08-29T17:28:18.109Z,5.78
2022-08-29T17:30:48.082Z,6.75
2022-08-29T17:33:17.005Z,6.00
2022-08-29T17:35:45.667Z,5.93
2022-08-29T17:38:16.118Z,6.38
2022-08-29T17:40:44.765Z,5.90
2022-08-29T17:43:15.031Z,6.28
2022-08-29T17:45:43.334Z,5.68
2022-08-29T17:48:11.840Z,5.85
2022-08-29T17:50:41.533Z,6.32
2022-08-29T17:53:09.673Z,5.70
2022-08-29T17:55:43.008Z,5.65
2022-08-29T17:58:11.629Z,5.80
2022-08-29T18:00:40.021Z,5.53
2022-08-29T18:03:08.262Z,6.10
2022-08-29T18:05:36.634Z,6.40
2022-08-29T18:08:05.318Z,5.88
2022-08-29T18:10:33.813Z,6.13
2022-08-29T18:13:04.012Z,6.15
2022-08-29T18:15:35.550Z,5.20
2022-08-29T18:18:04.151Z,5.90
2022-08-29T18:20:33.802Z,6.35
2022-08-29T18:23:02.006Z,5.85
2022-08-29T18:25:30.362Z,6.20
2022-08-29T18:28:00.224Z,5.97
2022-08-29T18:30:29.980Z,5.78
2022-08-29T18:32:58.535Z,6.72
2022-08-29T18:35:27.498Z,5.38
2022-08-29T18:37:55.879Z,6.10
2022-08-29T18:40:25.550Z,5.95
2022-08-29T18:42:54.817Z,6.53
2022-08-29T18:45:23.148Z,6.60
2022-08-29T18:47:52.849Z,6.50
2022-08-29T18:50:36.707Z,6.55
2022-08-29T18:53:11.966Z,7.05
2022-08-29T18:55:45.000Z,7.10
2022-08-29T18:58:17.995Z,6.93
2022-08-29T19:00:46.326Z,6.55
2022-08-29T19:03:16.093Z,6.60
2022-08-29T19:05:49.572Z,6.55
2022-08-29T19:08:18.241Z,6.97
2022-08-29T19:10:48.567Z,7.28
2022-08-29T19:13:18.759Z,7.10
2022-08-29T19:15:48.699Z,7.15
2022-08-29T19:18:18.951Z,7.57
2022-08-29T19:21:06.591Z,7.00
2022-08-29T19:23:37.575Z,7.57
2022-08-29T19:26:08.226Z,7.32
2022-08-29T19:28:36.718Z,7.20
2022-08-29T19:31:06.773Z,7.25
2022-08-29T19:33:38.377Z,7.65
2022-08-29T19:36:09.792Z,7.28
2022-08-29T19:38:38.008Z,7.35
2022-08-29T19:41:06.360Z,7.47
2022-08-29T19:43:36.010Z,7.60
2022-08-29T19:46:10.485Z,7.20
2022-08-29T19:48:44.265Z,7.25
2022-08-29T19:51:18.522Z,7.10
2022-08-29T19:53:47.668Z,6.68
2022-08-29T19:56:15.895Z,7.20
2022-08-29T19:58:44.246Z,6.25
2022-08-29T20:01:12.552Z,6.65
2022-08-29T20:03:42.466Z,7.20
2022-08-29T20:06:12.358Z,5.93
2022-08-29T20:08:42.759Z,6.40
2022-08-29T20:11:12.907Z,6.75
2022-08-29T20:13:41.137Z,6.70
2022-08-29T20:16:12.133Z,6.40
2022-08-29T20:18:41.217Z,6.18
2022-08-29T20:21:09.891Z,6.45
2022-08-29T20:26:28.226Z,6.30
2022-08-29T20:28:58.438Z,5.85
2022-08-29T20:31:26.705Z,5.50
2022-08-29T20:33:55.473Z,6.28
2022-08-29T20:36:42.289Z,6.63
2022-08-29T20:39:15.297Z,6.32
2022-08-29T20:41:49.359Z,6.32
2022-08-29T20:44:20.409Z,5.93
2022-08-29T20:46:49.448Z,6.68
2022-08-29T20:49:22.773Z,5.78
2022-08-29T20:51:52.148Z,5.38
2022-08-29T20:54:25.078Z,6.40
2022-08-29T20:56:55.104Z,5.60
2022-08-29T20:59:26.454Z,6.85
2022-08-29T21:01:55.555Z,6.65
2022-08-29T21:04:41.225Z,6.70
2022-08-29T21:07:12.178Z,6.90
2022-08-29T21:09:44.413Z,6.82
2022-08-29T21:12:15.168Z,6.65
2022-08-29T21:14:43.495Z,7.80
2022-08-29T21:17:13.559Z,6.38
2022-08-29T21:19:42.223Z,7.38
2022-08-29T21:22:12.890Z,7.05
2022-08-29T21:24:43.216Z,7.35
2022-08-29T21:27:11.577Z,6.80
2022-08-29T21:29:40.537Z,7.13
2022-08-29T21:32:08.739Z,7.28
2022-08-29T21:34:36.878Z,7.13
2022-08-29T21:37:05.659Z,7.40
2022-08-29T21:39:33.966Z,7.57
2022-08-29T21:42:03.415Z,7.63
2022-08-29T21:44:32.431Z,7.32
2022-08-29T21:47:01.121Z,6.72
2022-08-29T21:49:30.533Z,7.30
2022-08-29T21:51:58.657Z,6.85
2022-08-29T21:54:27.215Z,7.90
2022-08-29T21:56:55.334Z,8.40
2022-08-29T21:59:25.505Z,7.63
2022-08-29T22:01:54.944Z,8.07
2022-08-29T22:04:28.595Z,7.88
2022-08-29T22:06:58.318Z,8.35
2022-08-29T22:09:27.897Z,8.20
2022-08-29T22:11:56.264Z,8.43
2022-08-29T22:14:47.017Z,8.93
2022-08-29T22:17:15.744Z,9.10
2022-08-29T22:19:43.871Z,8.60
2022-08-29T22:22:12.536Z,9.10
2022-08-29T22:24:40.777Z,8.77
2022-08-29T22:27:08.979Z,8.55
2022-08-29T22:29:38.694Z,9.07
2022-08-29T22:32:07.080Z,8.60
2022-08-29T22:34:35.598Z,9.18
2022-08-29T22:37:03.961Z,8.65
2022-08-29T22:39:32.413Z,8.07
2022-08-29T22:42:00.483Z,8.68
2022-08-29T22:47:20.018Z,8.18
2022-08-29T22:49:48.137Z,7.93
2022-08-29T22:52:16.218Z,8.32
2022-08-29T22:54:44.376Z,8.45
2022-08-29T22:57:19.223Z,7.95
2022-08-29T22:59:49.822Z,7.45
2022-08-29T23:02:21.119Z,8.15
2022-08-29T23:04:50.618Z,7.35
2022-08-29T23:07:19.360Z,7.78
2022-08-29T23:09:47.850Z,7.47
2022-08-29T23:12:16.494Z,7.60
2022-08-29T23:14:47.426Z,8.15
2022-08-29T23:17:17.281Z,8.02
2022-08-29T23:19:46.898Z,8.18
2022-08-29T23:22:18.333Z,8.48
2022-08-29T23:24:53.769Z,7.57
2022-08-29T23:27:27.647Z,7.22
2022-08-29T23:29:56.081Z,7.63
2022-08-29T23:32:24.292Z,7.47
2022-08-29T23:34:53.803Z,7.32
2022-08-29T23:37:21.974Z,8.55
2022-08-29T23:39:50.921Z,9.05
2022-08-29T23:42:19.085Z,9.32
2022-08-29T23:44:48.523Z,9.15
2022-08-29T23:47:17.180Z,9.05
2022-08-29T23:49:45.694Z,9.75
2022-08-29T23:52:15.411Z,9.98
2022-08-29T23:54:43.538Z,10.13
2022-08-29T23:57:12.093Z,9.98
2022-08-29T23:59:57.656Z,10.43
